sensor_id;sensor_type;location;lat;lon;timestamp;pressure;altitude;pressure_sealevel;temperature
71897;BMP280;59767;51.344;12.362;2023-04-24T00:00:23;162389.38;;;14.50
71897;BMP280;59767;51.344;12.362;2023-04-24T00:03:30;162397.22;;;14.53
71897;BMP280;59767;51.344;12.362;2023-04-24T00:06:34;162371.06;;;14.43
71897;BMP280;59767;51.344;12.362;2023-04-24T00:09:38;162356.59;;;14.37
71897;BMP280;59767;51.344;12.362;2023-04-24T00:12:42;162343.50;;;14.32
71897;BMP280;59767;51.344;12.362;2023-04-24T00:15:46;162338.28;;;14.30
71897;BMP280;59767;51.344;12.362;2023-04-24T00:18:50;162343.50;;;14.32
71897;BMP280;59767;51.344;12.362;2023-04-24T00:21:56;162344.84;;;14.33
71897;BMP280;59767;51.344;12.362;2023-04-24T00:25:00;162315.97;;;14.22
71897;BMP280;59767;51.344;12.362;2023-04-24T00:28:04;162310.75;;;14.20
71897;BMP280;59767;51.344;12.362;2023-04-24T00:31:08;162288.47;;;14.11
71897;BMP280;59767;51.344;12.362;2023-04-24T00:34:13;162272.72;;;14.05
71897;BMP280;59767;51.344;12.362;2023-04-24T00:37:17;162254.38;;;13.98
71897;BMP280;59767;51.344;12.362;2023-04-24T00:40:21;162253.06;;;13.98
71897;BMP280;59767;51.344;12.362;2023-04-24T00:43:25;162233.47;;;13.90
71897;BMP280;59767;51.344;12.362;2023-04-24T00:46:30;162221.63;;;13.86
71897;BMP280;59767;51.344;12.362;2023-04-24T00:49:34;162203.31;;;13.79
71897;BMP280;59767;51.344;12.362;2023-04-24T00:52:38;162192.81;;;13.75
71897;BMP280;59767;51.344;12.362;2023-04-24T00:55:44;162171.91;;;13.67
71897;BMP280;59767;51.344;12.362;2023-04-24T00:58:49;162169.25;;;13.66
71897;BMP280;59767;51.344;12.362;2023-04-24T01:01:53;162178.41;;;13.69
71897;BMP280;59767;51.344;12.362;2023-04-24T01:04:57;162161.34;;;13.63
71897;BMP280;59767;51.344;12.362;2023-04-24T01:08:02;162153.53;;;13.60
71897;BMP280;59767;51.344;12.362;2023-04-24T01:11:07;162146.97;;;13.57
71897;BMP280;59767;51.344;12.362;2023-04-24T01:14:11;162132.53;;;13.52
71897;BMP280;59767;51.344;12.362;2023-04-24T01:17:15;162119.47;;;13.47
71897;BMP280;59767;51.344;12.362;2023-04-24T01:20:19;162124.66;;;13.49
71897;BMP280;59767;51.344;12.362;2023-04-24T01:23:26;162111.56;;;13.44
71897;BMP280;59767;51.344;12.362;2023-04-24T01:26:30;162116.84;;;13.46
71897;BMP280;59767;51.344;12.362;2023-04-24T01:29:35;162122.09;;;13.48
71897;BMP280;59767;51.344;12.362;2023-04-24T01:32:40;162105.06;;;13.41
71897;BMP280;59767;51.344;12.362;2023-04-24T01:35:44;162086.72;;;13.34
71897;BMP280;59767;51.344;12.362;2023-04-24T01:38:48;162082.78;;;13.33
71897;BMP280;59767;51.344;12.362;2023-04-24T01:41:52;162078.84;;;13.31
71897;BMP280;59767;51.344;12.362;2023-04-24T01:44:57;162064.47;;;13.26
71897;BMP280;59767;51.344;12.362;2023-04-24T01:48:01;162038.25;;;13.16
71897;BMP280;59767;51.344;12.362;2023-04-24T01:51:06;162053.97;;;13.22
71897;BMP280;59767;51.344;12.362;2023-04-24T01:54:10;162030.38;;;13.13
71897;BMP280;59767;51.344;12.362;2023-04-24T01:57:16;162030.38;;;13.13
71897;BMP280;59767;51.344;12.362;2023-04-24T02:00:20;162021.22;;;13.09
71897;BMP280;59767;51.344;12.362;2023-04-24T02:03:25;162005.53;;;13.03
71897;BMP280;59767;51.344;12.362;2023-04-24T02:06:30;162005.53;;;13.03
71897;BMP280;59767;51.344;12.362;2023-04-24T02:09:35;161989.81;;;12.97
71897;BMP280;59767;51.344;12.362;2023-04-24T02:12:38;161983.22;;;12.95
71897;BMP280;59767;51.344;12.362;2023-04-24T02:15:43;161981.91;;;12.94
71897;BMP280;59767;51.344;12.362;2023-04-24T02:18:47;161954.44;;;12.84
71897;BMP280;59767;51.344;12.362;2023-04-24T02:21:51;161943.94;;;12.80
71897;BMP280;59767;51.344;12.362;2023-04-24T02:24:55;161960.94;;;12.86
71897;BMP280;59767;51.344;12.362;2023-04-24T02:27:59;161955.75;;;12.84
71897;BMP280;59767;51.344;12.362;2023-04-24T02:31:03;161943.94;;;12.80
71897;BMP280;59767;51.344;12.362;2023-04-24T02:34:07;161933.47;;;12.76
71897;BMP280;59767;51.344;12.362;2023-04-24T02:37:12;161933.47;;;12.76
71897;BMP280;59767;51.344;12.362;2023-04-24T02:40:17;161937.41;;;12.77
71897;BMP280;59767;51.344;12.362;2023-04-24T02:43:21;161957.00;;;12.85
71897;BMP280;59767;51.344;12.362;2023-04-24T02:46:25;161934.78;;;12.76
71897;BMP280;59767;51.344;12.362;2023-04-24T02:49:29;161920.38;;;12.71
71897;BMP280;59767;51.344;12.362;2023-04-24T02:52:33;161909.91;;;12.67
71897;BMP280;59767;51.344;12.362;2023-04-24T02:55:37;161915.16;;;12.69
71897;BMP280;59767;51.344;12.362;2023-04-24T02:58:41;161917.78;;;12.70
71897;BMP280;59767;51.344;12.362;2023-04-24T03:01:46;161913.84;;;12.68
71897;BMP280;59767;51.344;12.362;2023-04-24T03:04:50;161915.16;;;12.69
71897;BMP280;59767;51.344;12.362;2023-04-24T03:07:53;161891.53;;;12.60
71897;BMP280;59767;51.344;12.362;2023-04-24T03:10:58;161895.47;;;12.61
71897;BMP280;59767;51.344;12.362;2023-04-24T03:14:02;161883.72;;;12.57
71897;BMP280;59767;51.344;12.362;2023-04-24T03:17:06;161870.56;;;12.52
71897;BMP280;59767;51.344;12.362;2023-04-24T03:20:10;161865.41;;;12.50
71897;BMP280;59767;51.344;12.362;2023-04-24T03:23:14;161847.06;;;12.43
71897;BMP280;59767;51.344;12.362;2023-04-24T03:26:19;161857.50;;;12.47
71897;BMP280;59767;51.344;12.362;2023-04-24T03:29:23;161843.13;;;12.41
71897;BMP280;59767;51.344;12.362;2023-04-24T03:32:27;161831.34;;;12.37
71897;BMP280;59767;51.344;12.362;2023-04-24T03:35:32;161820.81;;;12.33
71897;BMP280;59767;51.344;12.362;2023-04-24T03:38:36;161818.22;;;12.32
71897;BMP280;59767;51.344;12.362;2023-04-24T03:41:39;161815.63;;;12.31
71897;BMP280;59767;51.344;12.362;2023-04-24T03:44:43;161816.91;;;12.31
71897;BMP280;59767;51.344;12.362;2023-04-24T03:47:47;161816.91;;;12.31
71897;BMP280;59767;51.344;12.362;2023-04-24T03:50:51;161815.63;;;12.31
71897;BMP280;59767;51.344;12.362;2023-04-24T03:53:56;161807.75;;;12.28
71897;BMP280;59767;51.344;12.362;2023-04-24T03:57:00;161805.13;;;12.27
71897;BMP280;59767;51.344;12.362;2023-04-24T04:00:08;161811.69;;;12.29
71897;BMP280;59767;51.344;12.362;2023-04-24T04:03:12;161814.34;;;12.30
71897;BMP280;59767;51.344;12.362;2023-04-24T04:06:18;161811.69;;;12.29
71897;BMP280;59767;51.344;12.362;2023-04-24T04:09:23;161815.63;;;12.31
71897;BMP280;59767;51.344;12.362;2023-04-24T04:12:26;161823.47;;;12.34
71897;BMP280;59767;51.344;12.362;2023-04-24T04:15:31;161802.53;;;12.26
71897;BMP280;59767;51.344;12.362;2023-04-24T04:18:35;161794.69;;;12.23
71897;BMP280;59767;51.344;12.362;2023-04-24T04:21:39;161811.69;;;12.29
71897;BMP280;59767;51.344;12.362;2023-04-24T04:24:44;161818.22;;;12.32
71897;BMP280;59767;51.344;12.362;2023-04-24T04:27:48;161854.88;;;12.46
71897;BMP280;59767;51.344;12.362;2023-04-24T04:30:53;161865.41;;;12.50
71897;BMP280;59767;51.344;12.362;2023-04-24T04:34:01;161898.13;;;12.62
71897;BMP280;59767;51.344;12.362;2023-04-24T04:37:05;161925.59;;;12.73
71897;BMP280;59767;51.344;12.362;2023-04-24T04:40:10;161957.00;;;12.85
71897;BMP280;59767;51.344;12.362;2023-04-24T04:43:16;161955.75;;;12.84
71897;BMP280;59767;51.344;12.362;2023-04-24T04:46:20;161943.94;;;12.80
71897;BMP280;59767;51.344;12.362;2023-04-24T04:49:24;161953.09;;;12.83
71897;BMP280;59767;51.344;12.362;2023-04-24T04:52:29;161967.53;;;12.89
71897;BMP280;59767;51.344;12.362;2023-04-24T04:55:33;161964.91;;;12.88
71897;BMP280;59767;51.344;12.362;2023-04-24T04:58:37;161970.13;;;12.90
71897;BMP280;59767;51.344;12.362;2023-04-24T05:01:41;161964.91;;;12.88
71897;BMP280;59767;51.344;12.362;2023-04-24T05:04:46;161977.97;;;12.93
71897;BMP280;59767;51.344;12.362;2023-04-24T05:07:50;162010.69;;;13.05
71897;BMP280;59767;51.344;12.362;2023-04-24T05:10:54;162014.69;;;13.07
71897;BMP280;59767;51.344;12.362;2023-04-24T05:13:59;162018.63;;;13.08
71897;BMP280;59767;51.344;12.362;2023-04-24T05:17:03;162026.44;;;13.11
71897;BMP280;59767;51.344;12.362;2023-04-24T05:20:08;162050.03;;;13.20
71897;BMP280;59767;51.344;12.362;2023-04-24T05:23:13;162064.47;;;13.26
71897;BMP280;59767;51.344;12.362;2023-04-24T05:26:17;162108.97;;;13.43
71897;BMP280;59767;51.344;12.362;2023-04-24T05:29:21;162166.63;;;13.65
71897;BMP280;59767;51.344;12.362;2023-04-24T05:32:26;162192.81;;;13.75
71897;BMP280;59767;51.344;12.362;2023-04-24T05:35:30;162249.16;;;13.96
71897;BMP280;59767;51.344;12.362;2023-04-24T05:38:35;162285.81;;;14.10
71897;BMP280;59767;51.344;12.362;2023-04-24T05:41:39;162300.25;;;14.16
71897;BMP280;59767;51.344;12.362;2023-04-24T05:44:43;162301.53;;;14.16
71897;BMP280;59767;51.344;12.362;2023-04-24T05:47:47;162267.53;;;14.03
71897;BMP280;59767;51.344;12.362;2023-04-24T05:50:51;162234.78;;;13.91
71897;BMP280;59767;51.344;12.362;2023-04-24T05:53:56;162271.44;;;14.05
71897;BMP280;59767;51.344;12.362;2023-04-24T05:57:00;162278.00;;;14.07
71897;BMP280;59767;51.344;12.362;2023-04-24T06:00:09;162376.22;;;14.45
71897;BMP280;59767;51.344;12.362;2023-04-24T06:03:16;162503.41;;;14.93
71897;BMP280;59767;51.344;12.362;2023-04-24T06:06:20;162578.13;;;15.22
71897;BMP280;59767;51.344;12.362;2023-04-24T06:09:25;162659.38;;;15.53
71897;BMP280;59767;51.344;12.362;2023-04-24T06:12:29;162715.78;;;15.74
71897;BMP280;59767;51.344;12.362;2023-04-24T06:15:33;162731.53;;;15.80
71897;BMP280;59767;51.344;12.362;2023-04-24T06:18:37;162743.31;;;15.85
71897;BMP280;59767;51.344;12.362;2023-04-24T06:21:42;162769.56;;;15.95
71897;BMP280;59767;51.344;12.362;2023-04-24T06:24:46;162756.44;;;15.90
71897;BMP280;59767;51.344;12.362;2023-04-24T06:27:51;162727.59;;;15.79
71897;BMP280;59767;51.344;12.362;2023-04-24T06:30:56;162659.38;;;15.53
71897;BMP280;59767;51.344;12.362;2023-04-24T06:34:00;162610.91;;;15.34
71897;BMP280;59767;51.344;12.362;2023-04-24T06:37:05;162513.84;;;14.97
71897;BMP280;59767;51.344;12.362;2023-04-24T06:40:10;162452.25;;;14.74
71897;BMP280;59767;51.344;12.362;2023-04-24T06:43:14;162427.38;;;14.64
71897;BMP280;59767;51.344;12.362;2023-04-24T06:46:18;162433.97;;;14.67
71897;BMP280;59767;51.344;12.362;2023-04-24T06:49:26;162428.69;;;14.65
71897;BMP280;59767;51.344;12.362;2023-04-24T06:52:30;162431.31;;;14.66
71897;BMP280;59767;51.344;12.362;2023-04-24T06:55:37;162465.41;;;14.79
71897;BMP280;59767;51.344;12.362;2023-04-24T06:58:41;162504.75;;;14.94
71897;BMP280;59767;51.344;12.362;2023-04-24T07:01:46;162504.75;;;14.94
71897;BMP280;59767;51.344;12.362;2023-04-24T07:04:50;162498.13;;;14.91
71897;BMP280;59767;51.344;12.362;2023-04-24T07:07:54;162490.31;;;14.88
71897;BMP280;59767;51.344;12.362;2023-04-24T07:10:59;162506.03;;;14.94
71897;BMP280;59767;51.344;12.362;2023-04-24T07:14:04;162494.25;;;14.90
71897;BMP280;59767;51.344;12.362;2023-04-24T07:17:08;162470.63;;;14.81
71897;BMP280;59767;51.344;12.362;2023-04-24T07:20:12;162465.41;;;14.79
71897;BMP280;59767;51.344;12.362;2023-04-24T07:23:19;162449.69;;;14.73
71897;BMP280;59767;51.344;12.362;2023-04-24T07:26:26;162506.03;;;14.94
71897;BMP280;59767;51.344;12.362;2023-04-24T07:29:30;162592.53;;;15.27
71897;BMP280;59767;51.344;12.362;2023-04-24T07:32:34;162693.50;;;15.66
71897;BMP280;59767;51.344;12.362;2023-04-24T07:35:39;162785.28;;;16.01
71897;BMP280;59767;51.344;12.362;2023-04-24T07:38:43;162874.50;;;16.35
71897;BMP280;59767;51.344;12.362;2023-04-24T07:41:47;162917.75;;;16.51
71897;BMP280;59767;51.344;12.362;2023-04-24T07:44:51;162913.84;;;16.50
71897;BMP280;59767;51.344;12.362;2023-04-24T07:47:56;162899.44;;;16.44
71897;BMP280;59767;51.344;12.362;2023-04-24T07:51:00;162900.72;;;16.45
71897;BMP280;59767;51.344;12.362;2023-04-24T07:54:05;162971.50;;;16.72
71897;BMP280;59767;51.344;12.362;2023-04-24T07:57:09;163102.75;;;17.22
71897;BMP280;59767;51.344;12.362;2023-04-24T08:00:14;163283.81;;;17.91
71897;BMP280;59767;51.344;12.362;2023-04-24T08:03:18;163499.09;;;18.73
71897;BMP280;59767;51.344;12.362;2023-04-24T08:06:24;163769.56;;;19.75
71897;BMP280;59767;51.344;12.362;2023-04-24T08:09:27;163906.22;;;20.27
71897;BMP280;59767;51.344;12.362;2023-04-24T08:12:32;163795.88;;;19.85
71897;BMP280;59767;51.344;12.362;2023-04-24T08:15:36;163706.59;;;19.52
71897;BMP280;59767;51.344;12.362;2023-04-24T08:18:40;163739.41;;;19.64
71897;BMP280;59767;51.344;12.362;2023-04-24T08:21:45;163671.09;;;19.38
71897;BMP280;59767;51.344;12.362;2023-04-24T08:24:51;163727.59;;;19.59
71897;BMP280;59767;51.344;12.362;2023-04-24T08:27:55;163706.59;;;19.52
71897;BMP280;59767;51.344;12.362;2023-04-24T08:30:59;163592.31;;;19.08
71897;BMP280;59767;51.344;12.362;2023-04-24T08:34:04;163546.38;;;18.91
71897;BMP280;59767;51.344;12.362;2023-04-24T08:37:08;163440.06;;;18.50
71897;BMP280;59767;51.344;12.362;2023-04-24T08:40:14;163274.66;;;17.87
71897;BMP280;59767;51.344;12.362;2023-04-24T08:43:23;163132.91;;;17.33
71897;BMP280;59767;51.344;12.362;2023-04-24T08:46:29;163030.59;;;16.94
71897;BMP280;59767;51.344;12.362;2023-04-24T08:49:36;163012.22;;;16.87
71897;BMP280;59767;51.344;12.362;2023-04-24T08:52:42;163064.69;;;17.07
71897;BMP280;59767;51.344;12.362;2023-04-24T08:55:47;163177.53;;;17.50
71897;BMP280;59767;51.344;12.362;2023-04-24T08:58:53;163130.28;;;17.32
71897;BMP280;59767;51.344;12.362;2023-04-24T09:01:57;163110.63;;;17.25
71897;BMP280;59767;51.344;12.362;2023-04-24T09:05:02;163107.97;;;17.24
71897;BMP280;59767;51.344;12.362;2023-04-24T09:08:07;163134.22;;;17.34
71897;BMP280;59767;51.344;12.362;2023-04-24T09:11:12;163128.94;;;17.32
71897;BMP280;59767;51.344;12.362;2023-04-24T09:14:17;163102.75;;;17.22
71897;BMP280;59767;51.344;12.362;2023-04-24T09:17:21;163042.38;;;16.99
71897;BMP280;59767;51.344;12.362;2023-04-24T09:20:26;163018.78;;;16.90
71897;BMP280;59767;51.344;12.362;2023-04-24T09:23:32;162934.81;;;16.58
71897;BMP280;59767;51.344;12.362;2023-04-24T09:26:37;162827.25;;;16.17
71897;BMP280;59767;51.344;12.362;2023-04-24T09:29:54;162795.78;;;16.05
71897;BMP280;59767;51.344;12.362;2023-04-24T09:33:15;162769.56;;;15.95
71897;BMP280;59767;51.344;12.362;2023-04-24T09:36:27;162787.91;;;16.02
71897;BMP280;59767;51.344;12.362;2023-04-24T09:39:31;162787.91;;;16.02
71897;BMP280;59767;51.344;12.362;2023-04-24T09:42:35;162777.44;;;15.98
71897;BMP280;59767;51.344;12.362;2023-04-24T09:45:39;162772.16;;;15.96
71897;BMP280;59767;51.344;12.362;2023-04-24T09:48:44;162798.41;;;16.06
71897;BMP280;59767;51.344;12.362;2023-04-24T09:51:48;162802.34;;;16.07
71897;BMP280;59767;51.344;12.362;2023-04-24T09:54:53;162843.00;;;16.23
71897;BMP280;59767;51.344;12.362;2023-04-24T09:57:59;162961.06;;;16.68
71897;BMP280;59767;51.344;12.362;2023-04-24T10:01:09;163054.19;;;17.03
71897;BMP280;59767;51.344;12.362;2023-04-24T10:04:21;163081.75;;;17.14
71897;BMP280;59767;51.344;12.362;2023-04-24T10:07:26;163072.59;;;17.10
71897;BMP280;59767;51.344;12.362;2023-04-24T10:10:31;163047.66;;;17.01
71897;BMP280;59767;51.344;12.362;2023-04-24T10:13:36;163114.53;;;17.26
71897;BMP280;59767;51.344;12.362;2023-04-24T10:16:40;163088.28;;;17.16
71897;BMP280;59767;51.344;12.362;2023-04-24T10:19:45;162979.41;;;16.75
71897;BMP280;59767;51.344;12.362;2023-04-24T10:22:51;163025.31;;;16.92
71897;BMP280;59767;51.344;12.362;2023-04-24T10:25:55;163039.75;;;16.98
71897;BMP280;59767;51.344;12.362;2023-04-24T10:29:00;163079.09;;;17.13
71897;BMP280;59767;51.344;12.362;2023-04-24T10:32:06;163156.56;;;17.42
71897;BMP280;59767;51.344;12.362;2023-04-24T10:35:15;163227.41;;;17.69
71897;BMP280;59767;51.344;12.362;2023-04-24T10:38:30;163202.47;;;17.60
71897;BMP280;59767;51.344;12.362;2023-04-24T10:41:37;163046.34;;;17.00
71897;BMP280;59767;51.344;12.362;2023-04-24T10:44:41;162996.47;;;16.81
71897;BMP280;59767;51.344;12.362;2023-04-24T10:48:02;162983.34;;;16.76
71897;BMP280;59767;51.344;12.362;2023-04-24T10:51:12;162974.19;;;16.73
71897;BMP280;59767;51.344;12.362;2023-04-24T10:54:22;162947.94;;;16.63
71897;BMP280;59767;51.344;12.362;2023-04-24T10:57:28;162996.47;;;16.81
71897;BMP280;59767;51.344;12.362;2023-04-24T11:00:39;162971.50;;;16.72
71897;BMP280;59767;51.344;12.362;2023-04-24T11:03:53;162957.09;;;16.66
71897;BMP280;59767;51.344;12.362;2023-04-24T11:06:58;162955.81;;;16.66
71897;BMP280;59767;51.344;12.362;2023-04-24T11:10:04;162942.69;;;16.61
71897;BMP280;59767;51.344;12.362;2023-04-24T11:13:08;163035.81;;;16.96
71897;BMP280;59767;51.344;12.362;2023-04-24T11:16:40;163142.09;;;17.37
71897;BMP280;59767;51.344;12.362;2023-04-24T11:19:50;163088.28;;;17.16
71897;BMP280;59767;51.344;12.362;2023-04-24T11:23:03;163117.16;;;17.27
71897;BMP280;59767;51.344;12.362;2023-04-24T11:26:23;163151.31;;;17.40
71897;BMP280;59767;51.344;12.362;2023-04-24T11:33:03;163193.28;;;17.56
71897;BMP280;59767;51.344;12.362;2023-04-24T11:36:08;163165.72;;;17.46
71897;BMP280;59767;51.344;12.362;2023-04-24T11:39:12;163176.19;;;17.50
71897;BMP280;59767;51.344;12.362;2023-04-24T11:42:18;163156.56;;;17.42
71897;BMP280;59767;51.344;12.362;2023-04-24T11:45:27;163092.22;;;17.18
71897;BMP280;59767;51.344;12.362;2023-04-24T11:48:36;163050.22;;;17.02
71897;BMP280;59767;51.344;12.362;2023-04-24T11:51:43;163054.19;;;17.03
71897;BMP280;59767;51.344;12.362;2023-04-24T11:54:57;163107.97;;;17.24
71897;BMP280;59767;51.344;12.362;2023-04-24T11:58:01;163163.13;;;17.45
71897;BMP280;59767;51.344;12.362;2023-04-24T12:01:06;163294.34;;;17.95
71897;BMP280;59767;51.344;12.362;2023-04-24T12:04:10;163240.53;;;17.74
71897;BMP280;59767;51.344;12.362;2023-04-24T12:07:15;163300.88;;;17.97
71897;BMP280;59767;51.344;12.362;2023-04-24T12:10:21;163437.38;;;18.49
71897;BMP280;59767;51.344;12.362;2023-04-24T12:13:25;163380.97;;;18.28
71897;BMP280;59767;51.344;12.362;2023-04-24T12:16:32;163239.19;;;17.74
71897;BMP280;59767;51.344;12.362;2023-04-24T12:19:36;163138.19;;;17.35
71897;BMP280;59767;51.344;12.362;2023-04-24T12:22:51;163194.63;;;17.57
71897;BMP280;59767;51.344;12.362;2023-04-24T12:26:00;163177.53;;;17.50
71897;BMP280;59767;51.344;12.362;2023-04-24T12:29:05;163163.13;;;17.45
71897;BMP280;59767;51.344;12.362;2023-04-24T12:32:16;163098.84;;;17.20
71897;BMP280;59767;51.344;12.362;2023-04-24T12:35:22;163100.06;;;17.21
71897;BMP280;59767;51.344;12.362;2023-04-24T12:38:28;163125.06;;;17.30
71897;BMP280;59767;51.344;12.362;2023-04-24T12:41:37;163118.50;;;17.28
71897;BMP280;59767;51.344;12.362;2023-04-24T12:44:42;163058.13;;;17.05
71897;BMP280;59767;51.344;12.362;2023-04-24T12:47:46;163049.00;;;17.01
71897;BMP280;59767;51.344;12.362;2023-04-24T12:50:50;163051.56;;;17.02
71897;BMP280;59767;51.344;12.362;2023-04-24T12:53:54;163010.91;;;16.87
71897;BMP280;59767;51.344;12.362;2023-04-24T12:56:59;163007.00;;;16.85
71897;BMP280;59767;51.344;12.362;2023-04-24T13:00:07;163022.75;;;16.91
71897;BMP280;59767;51.344;12.362;2023-04-24T13:03:11;162999.09;;;16.82
71897;BMP280;59767;51.344;12.362;2023-04-24T13:06:16;163030.59;;;16.94
71897;BMP280;59767;51.344;12.362;2023-04-24T13:09:20;163046.34;;;17.00
71897;BMP280;59767;51.344;12.362;2023-04-24T13:12:24;163071.25;;;17.10
71897;BMP280;59767;51.344;12.362;2023-04-24T13:15:29;163152.59;;;17.41
71897;BMP280;59767;51.344;12.362;2023-04-24T13:18:33;163273.38;;;17.87
71897;BMP280;59767;51.344;12.362;2023-04-24T13:21:38;163336.38;;;18.11
71897;BMP280;59767;51.344;12.362;2023-04-24T13:24:42;163425.56;;;18.45
71897;BMP280;59767;51.344;12.362;2023-04-24T13:27:46;163472.84;;;18.63
71897;BMP280;59767;51.344;12.362;2023-04-24T13:30:51;163556.91;;;18.95
71897;BMP280;59767;51.344;12.362;2023-04-24T13:33:55;163579.19;;;19.03
71897;BMP280;59767;51.344;12.362;2023-04-24T13:36:59;163546.38;;;18.91
71897;BMP280;59767;51.344;12.362;2023-04-24T13:40:04;163542.41;;;18.89
71897;BMP280;59767;51.344;12.362;2023-04-24T13:43:10;163488.63;;;18.69
71897;BMP280;59767;51.344;12.362;2023-04-24T13:46:14;163424.25;;;18.44
71897;BMP280;59767;51.344;12.362;2023-04-24T13:49:18;163336.38;;;18.11
71897;BMP280;59767;51.344;12.362;2023-04-24T13:52:23;163278.53;;;17.89
71897;BMP280;59767;51.344;12.362;2023-04-24T13:55:27;163194.63;;;17.57
71897;BMP280;59767;51.344;12.362;2023-04-24T13:58:31;163123.78;;;17.30
71897;BMP280;59767;51.344;12.362;2023-04-24T14:01:40;163126.34;;;17.31
71897;BMP280;59767;51.344;12.362;2023-04-24T14:04:44;163138.19;;;17.35
71897;BMP280;59767;51.344;12.362;2023-04-24T14:07:50;163188.03;;;17.54
71897;BMP280;59767;51.344;12.362;2023-04-24T14:10:54;163216.88;;;17.65
71897;BMP280;59767;51.344;12.362;2023-04-24T14:13:59;163164.41;;;17.45
71897;BMP280;59767;51.344;12.362;2023-04-24T14:17:03;163139.47;;;17.36
71897;BMP280;59767;51.344;12.362;2023-04-24T14:20:08;163115.88;;;17.27
71897;BMP280;59767;51.344;12.362;2023-04-24T14:23:12;163144.75;;;17.38
71897;BMP280;59767;51.344;12.362;2023-04-24T14:26:16;163182.75;;;17.52
71897;BMP280;59767;51.344;12.362;2023-04-24T14:29:21;163163.13;;;17.45
71897;BMP280;59767;51.344;12.362;2023-04-24T14:32:25;163132.91;;;17.33
71897;BMP280;59767;51.344;12.362;2023-04-24T14:35:29;163097.50;;;17.20
71897;BMP280;59767;51.344;12.362;2023-04-24T14:38:35;163005.66;;;16.85
71897;BMP280;59767;51.344;12.362;2023-04-24T14:41:38;162976.78;;;16.74
71897;BMP280;59767;51.344;12.362;2023-04-24T14:44:43;162970.22;;;16.71
71897;BMP280;59767;51.344;12.362;2023-04-24T14:47:47;162853.50;;;16.27
71897;BMP280;59767;51.344;12.362;2023-04-24T14:50:51;162795.78;;;16.05
71897;BMP280;59767;51.344;12.362;2023-04-24T14:53:56;162743.31;;;15.85
71897;BMP280;59767;51.344;12.362;2023-04-24T14:57:00;162727.59;;;15.79
71897;BMP280;59767;51.344;12.362;2023-04-24T15:00:06;162713.13;;;15.73
71897;BMP280;59767;51.344;12.362;2023-04-24T15:03:12;162685.63;;;15.63
71897;BMP280;59767;51.344;12.362;2023-04-24T15:06:17;162626.66;;;15.40
71897;BMP280;59767;51.344;12.362;2023-04-24T15:09:22;162639.75;;;15.45
71897;BMP280;59767;51.344;12.362;2023-04-24T15:12:26;162714.47;;;15.74
71897;BMP280;59767;51.344;12.362;2023-04-24T15:15:30;162770.88;;;15.95
71897;BMP280;59767;51.344;12.362;2023-04-24T15:18:34;162722.34;;;15.77
71897;BMP280;59767;51.344;12.362;2023-04-24T15:21:38;162571.53;;;15.19
71897;BMP280;59767;51.344;12.362;2023-04-24T15:24:45;162534.84;;;15.05
71897;BMP280;59767;51.344;12.362;2023-04-24T15:27:49;162538.78;;;15.07
71897;BMP280;59767;51.344;12.362;2023-04-24T15:30:54;162559.75;;;15.15
71897;BMP280;59767;51.344;12.362;2023-04-24T15:33:58;162554.56;;;15.13
71897;BMP280;59767;51.344;12.362;2023-04-24T15:37:02;162517.81;;;14.99
71897;BMP280;59767;51.344;12.362;2023-04-24T15:40:06;162593.88;;;15.28
71897;BMP280;59767;51.344;12.362;2023-04-24T15:43:14;162618.75;;;15.37
71897;BMP280;59767;51.344;12.362;2023-04-24T15:46:20;162549.31;;;15.11
71897;BMP280;59767;51.344;12.362;2023-04-24T15:49:24;162478.53;;;14.84
71897;BMP280;59767;51.344;12.362;2023-04-24T15:52:29;162481.13;;;14.85
71897;BMP280;59767;51.344;12.362;2023-04-24T15:55:33;162483.75;;;14.86
71897;BMP280;59767;51.344;12.362;2023-04-24T15:58:38;162487.69;;;14.87
71897;BMP280;59767;51.344;12.362;2023-04-24T16:01:42;162504.75;;;14.94
71897;BMP280;59767;51.344;12.362;2023-04-24T16:04:47;162473.25;;;14.82
71897;BMP280;59767;51.344;12.362;2023-04-24T16:07:52;162406.44;;;14.56
71897;BMP280;59767;51.344;12.362;2023-04-24T16:10:56;162376.22;;;14.45
71897;BMP280;59767;51.344;12.362;2023-04-24T16:14:01;162360.56;;;14.39
71897;BMP280;59767;51.344;12.362;2023-04-24T16:17:05;162376.22;;;14.45
71897;BMP280;59767;51.344;12.362;2023-04-24T16:20:10;162364.44;;;14.40
71897;BMP280;59767;51.344;12.362;2023-04-24T16:23:14;162333.00;;;14.28
71897;BMP280;59767;51.344;12.362;2023-04-24T16:26:18;162318.56;;;14.23
71897;BMP280;59767;51.344;12.362;2023-04-24T16:29:22;162308.13;;;14.19
71897;BMP280;59767;51.344;12.362;2023-04-24T16:32:27;162272.72;;;14.05
71897;BMP280;59767;51.344;12.362;2023-04-24T16:35:32;162263.59;;;14.02
71897;BMP280;59767;51.344;12.362;2023-04-24T16:38:36;162230.81;;;13.89
71897;BMP280;59767;51.344;12.362;2023-04-24T16:41:40;162187.59;;;13.73
71897;BMP280;59767;51.344;12.362;2023-04-24T16:44:44;162167.97;;;13.65
71897;BMP280;59767;51.344;12.362;2023-04-24T16:47:48;162156.13;;;13.61
71897;BMP280;59767;51.344;12.362;2023-04-24T16:50:53;162157.41;;;13.61
71897;BMP280;59767;51.344;12.362;2023-04-24T16:53:56;162156.13;;;13.61
71897;BMP280;59767;51.344;12.362;2023-04-24T16:57:01;162169.25;;;13.66
71897;BMP280;59767;51.344;12.362;2023-04-24T17:00:06;162153.53;;;13.60
71897;BMP280;59767;51.344;12.362;2023-04-24T17:03:11;162149.59;;;13.58
71897;BMP280;59767;51.344;12.362;2023-04-24T17:06:16;162133.88;;;13.52
71897;BMP280;59767;51.344;12.362;2023-04-24T17:09:20;162118.19;;;13.46
71897;BMP280;59767;51.344;12.362;2023-04-24T17:12:24;162095.88;;;13.38
71897;BMP280;59767;51.344;12.362;2023-04-24T17:15:28;162080.16;;;13.32
71897;BMP280;59767;51.344;12.362;2023-04-24T17:18:33;162078.84;;;13.31